createdAt,value
2018-09-13T00:01:11.298Z,11.23
2018-09-13T00:03:39.818Z,9.40
2018-09-13T00:06:08.338Z,8.47
2018-09-13T00:08:36.865Z,7.20
2018-09-13T00:11:05.662Z,10.83
2018-09-13T00:13:34.235Z,6.93
2018-09-13T00:16:02.759Z,9.00
2018-09-13T00:18:31.305Z,8.63
2018-09-13T00:20:59.834Z,7.10
2018-09-13T00:23:28.403Z,7.57
2018-09-13T00:25:56.936Z,9.87
2018-09-13T00:28:26.262Z,8.50
2018-09-13T00:30:54.784Z,8.43
2018-09-13T00:33:23.340Z,7.77
2018-09-13T00:35:51.869Z,7.43
2018-09-13T00:38:20.433Z,8.73
2018-09-13T00:40:48.964Z,9.73
2018-09-13T00:43:17.510Z,5.70
2018-09-13T00:45:46.159Z,9.07
2018-09-13T00:48:14.717Z,10.60
2018-09-13T00:50:43.277Z,7.83
2018-09-13T00:53:11.833Z,9.40
2018-09-13T00:55:40.380Z,8.23
2018-09-13T00:58:08.942Z,13.43
2018-09-13T01:00:37.466Z,12.53
2018-09-13T01:03:06.889Z,7.73
2018-09-13T01:05:35.421Z,10.90
2018-09-13T01:08:03.983Z,7.80
2018-09-13T01:10:32.556Z,9.80
2018-09-13T01:13:01.140Z,8.00
2018-09-13T01:15:29.709Z,10.20
2018-09-13T01:17:58.256Z,14.13
2018-09-13T01:20:26.821Z,10.93
2018-09-13T01:22:55.353Z,9.23
2018-09-13T01:25:23.934Z,11.40
2018-09-13T01:27:52.465Z,8.53
2018-09-13T01:30:21.026Z,10.07
2018-09-13T01:32:49.559Z,8.90
2018-09-13T01:35:18.139Z,8.17
2018-09-13T01:37:46.670Z,10.73
2018-09-13T01:40:15.229Z,9.80
2018-09-13T01:42:43.761Z,10.70
2018-09-13T01:45:12.323Z,9.57
2018-09-13T01:47:40.837Z,9.13
2018-09-13T01:50:09.396Z,9.23
2018-09-13T01:52:37.924Z,12.00
2018-09-13T01:55:06.513Z,11.83
2018-09-13T01:57:35.040Z,10.73
2018-09-13T02:00:03.642Z,11.07
2018-09-13T02:02:32.223Z,13.97
2018-09-13T02:05:00.791Z,9.70
2018-09-13T02:07:29.446Z,12.33
2018-09-13T02:09:58.007Z,10.93
2018-09-13T02:12:26.569Z,9.77
2018-09-13T02:14:55.117Z,13.87
2018-09-13T02:17:23.638Z,10.10
2018-09-13T02:19:52.253Z,10.03
2018-09-13T02:22:20.781Z,9.67
2018-09-13T02:24:49.334Z,9.40
2018-09-13T02:27:17.862Z,14.37
2018-09-13T02:29:46.444Z,12.90
2018-09-13T02:32:14.972Z,9.40
2018-09-13T02:34:44.042Z,10.53
2018-09-13T02:37:12.625Z,10.43
2018-09-13T02:39:41.337Z,10.37
2018-09-13T02:42:09.989Z,14.57
2018-09-13T02:44:38.662Z,13.90
2018-09-13T02:47:07.199Z,9.40
2018-09-13T02:49:35.765Z,13.40
2018-09-13T02:52:04.314Z,11.63
2018-09-13T02:54:32.866Z,8.77
2018-09-13T02:57:01.385Z,9.60
2018-09-13T02:59:29.944Z,9.60
2018-09-13T03:01:58.462Z,9.77
2018-09-13T03:04:27.015Z,9.37
2018-09-13T03:06:55.570Z,10.00
2018-09-13T03:09:24.113Z,13.50
2018-09-13T03:11:52.712Z,11.33
2018-09-13T03:14:21.239Z,10.87
2018-09-13T03:16:49.799Z,12.10
2018-09-13T03:19:18.345Z,10.00
2018-09-13T03:21:46.989Z,13.13
2018-09-13T03:24:15.524Z,11.20
2018-09-13T03:26:44.130Z,10.20
2018-09-13T03:29:12.722Z,9.80
2018-09-13T03:31:41.281Z,11.37
2018-09-13T03:34:09.872Z,10.43
2018-09-13T03:36:38.432Z,11.20
2018-09-13T03:39:09.019Z,12.23
2018-09-13T03:41:37.578Z,14.57
2018-09-13T03:44:06.513Z,13.87
2018-09-13T03:46:35.417Z,10.73
2018-09-13T03:49:04.007Z,11.23
2018-09-13T03:51:32.584Z,10.37
2018-09-13T03:54:01.713Z,11.23
2018-09-13T03:56:30.270Z,13.50
2018-09-13T03:58:58.878Z,11.67
2018-09-13T04:01:27.492Z,10.80
2018-09-13T04:03:56.072Z,11.30
2018-09-13T04:06:24.701Z,12.30
2018-09-13T04:08:53.285Z,12.57
2018-09-13T04:11:21.892Z,10.10
2018-09-13T04:13:50.973Z,10.73
2018-09-13T04:16:19.659Z,11.77
2018-09-13T04:18:48.630Z,10.50
2018-09-13T04:21:17.241Z,13.30
2018-09-13T04:23:45.787Z,12.33
2018-09-13T04:26:14.609Z,12.67
2018-09-13T04:28:43.154Z,10.03
2018-09-13T04:31:11.708Z,12.87
2018-09-13T04:33:40.240Z,12.10
2018-09-13T04:36:08.839Z,11.37
2018-09-13T04:38:37.377Z,11.10
2018-09-13T04:41:06.816Z,11.87
2018-09-13T04:43:35.391Z,15.13
2018-09-13T04:46:04.078Z,12.50
2018-09-13T04:48:33.316Z,14.17
2018-09-13T04:51:02.237Z,14.93
2018-09-13T04:53:31.158Z,14.20
2018-09-13T04:55:59.753Z,12.43
2018-09-13T04:58:28.357Z,13.30
2018-09-13T05:00:56.934Z,13.93
2018-09-13T05:03:25.478Z,13.00
2018-09-13T05:05:54.062Z,14.87
2018-09-13T05:08:22.646Z,16.32
2018-09-13T05:10:51.242Z,14.03
2018-09-13T05:13:20.045Z,15.00
2018-09-13T05:15:50.716Z,13.60
2018-09-13T05:18:19.441Z,17.70
2018-09-13T05:20:48.037Z,16.53
2018-09-13T05:23:16.731Z,17.43
2018-09-13T05:25:45.400Z,15.03
2018-09-13T05:28:14.095Z,14.40
2018-09-13T05:30:42.717Z,15.50
2018-09-13T05:33:11.494Z,17.17
2018-09-13T05:35:40.078Z,16.23
2018-09-13T05:38:09.339Z,17.83
2018-09-13T05:40:38.749Z,23.23
2018-09-13T05:43:07.426Z,18.73
2018-09-13T05:45:36.053Z,19.30
2018-09-13T05:48:04.743Z,17.47
2018-09-13T05:50:33.457Z,17.77
2018-09-13T05:53:03.920Z,19.60
2018-09-13T05:55:37.040Z,23.53
2018-09-13T05:58:05.763Z,17.83
2018-09-13T06:00:34.549Z,20.27
2018-09-13T06:03:03.242Z,28.30
2018-09-13T06:05:31.829Z,20.80
2018-09-13T06:08:00.558Z,20.43
2018-09-13T06:10:29.179Z,24.40
2018-09-13T06:12:57.862Z,22.73
2018-09-13T06:15:26.506Z,24.90
2018-09-13T06:17:55.098Z,22.10
2018-09-13T06:20:23.671Z,18.63
2018-09-13T06:22:52.249Z,21.13
2018-09-13T06:25:20.818Z,21.83
2018-09-13T06:27:49.393Z,25.67
2018-09-13T06:30:17.937Z,23.53
2018-09-13T06:32:46.625Z,24.80
2018-09-13T06:35:15.202Z,25.37
2018-09-13T06:37:43.829Z,24.07
2018-09-13T06:40:13.290Z,22.20
2018-09-13T06:42:41.914Z,21.93
2018-09-13T06:45:10.580Z,23.00
2018-09-13T06:47:39.363Z,25.40
2018-09-13T06:50:08.166Z,25.03
2018-09-13T06:52:36.753Z,27.20
2018-09-13T06:55:05.630Z,26.43
2018-09-13T06:57:34.242Z,30.10
2018-09-13T07:00:03.015Z,27.47
2018-09-13T07:02:31.621Z,26.53
2018-09-13T07:05:00.188Z,27.30
2018-09-13T07:07:28.835Z,28.03
2018-09-13T07:09:57.550Z,26.83
2018-09-13T07:12:26.175Z,24.80
2018-09-13T07:14:54.805Z,23.03
2018-09-13T07:17:23.425Z,27.13
2018-09-13T07:19:51.968Z,23.07
2018-09-13T07:22:20.536Z,26.20
2018-09-13T07:24:49.080Z,22.97
2018-09-13T07:27:17.649Z,23.63
2018-09-13T07:29:46.270Z,26.70
2018-09-13T07:32:14.853Z,22.00
2018-09-13T07:34:43.397Z,22.00
2018-09-13T07:37:11.978Z,23.70
2018-09-13T07:39:40.595Z,22.83
2018-09-13T07:42:09.262Z,20.13
2018-09-13T07:44:37.865Z,20.80
2018-09-13T07:47:06.470Z,21.93
2018-09-13T07:49:35.254Z,20.37
2018-09-13T07:52:05.129Z,21.20
2018-09-13T07:54:33.680Z,21.10
2018-09-13T07:57:02.265Z,22.57
2018-09-13T07:59:30.813Z,18.67
2018-09-13T08:01:59.384Z,16.37
2018-09-13T08:04:27.934Z,18.93
2018-09-13T08:06:56.518Z,20.93
2018-09-13T08:09:25.106Z,17.23
2018-09-13T08:11:53.763Z,21.27
2018-09-13T08:14:22.200Z,15.30
2018-09-13T08:16:50.765Z,18.10
2018-09-13T08:19:19.278Z,16.73
2018-09-13T08:21:47.956Z,15.30
2018-09-13T08:24:16.366Z,16.60
2018-09-13T08:26:44.893Z,12.97
2018-09-13T08:29:13.459Z,15.27
2018-09-13T08:31:42.044Z,15.93
2018-09-13T08:34:10.650Z,14.47
2018-09-13T08:36:39.162Z,16.13
2018-09-13T08:39:09.987Z,13.23
2018-09-13T08:41:38.503Z,12.63
2018-09-13T08:44:07.066Z,12.30
2018-09-13T08:46:35.581Z,13.00
2018-09-13T08:49:04.139Z,13.40
2018-09-13T08:51:33.082Z,14.20
2018-09-13T08:54:01.779Z,13.83
2018-09-13T08:56:30.333Z,17.30
2018-09-13T08:58:58.951Z,15.57
2018-09-13T09:01:27.488Z,14.13
2018-09-13T09:03:56.049Z,14.73
2018-09-13T09:06:24.609Z,16.40
2018-09-13T09:08:53.309Z,16.27
2018-09-13T09:11:22.490Z,13.93
2018-09-13T09:13:51.194Z,18.80
2018-09-13T09:16:19.724Z,14.77
2018-09-13T09:18:48.300Z,13.20
2018-09-13T09:21:16.870Z,12.73
2018-09-13T09:23:45.501Z,15.77
2018-09-13T09:26:14.718Z,14.00
2018-09-13T09:28:44.312Z,22.30
2018-09-13T09:31:12.835Z,14.20
2018-09-13T09:33:41.500Z,13.37
2018-09-13T09:36:10.181Z,15.10
2018-09-13T09:38:38.756Z,14.33
2018-09-13T09:41:07.268Z,14.17
2018-09-13T09:43:38.683Z,13.20
2018-09-13T09:46:12.487Z,12.40
2018-09-13T09:48:42.212Z,12.23
2018-09-13T09:51:10.860Z,13.27
2018-09-13T09:53:39.439Z,14.20
2018-09-13T09:56:08.031Z,14.33
2018-09-13T09:58:36.562Z,10.73
2018-09-13T10:01:10.369Z,11.67
2018-09-13T10:03:45.724Z,12.43
2018-09-13T10:06:14.539Z,13.40
2018-09-13T10:08:43.162Z,13.67
2018-09-13T10:11:11.823Z,12.57
2018-09-13T10:13:40.595Z,14.13
2018-09-13T10:16:14.529Z,14.53
2018-09-13T10:18:45.325Z,11.30
2018-09-13T10:21:19.507Z,15.20
2018-09-13T10:23:53.350Z,13.00
2018-09-13T10:26:27.240Z,10.43
2018-09-13T10:29:01.160Z,14.53
2018-09-13T10:31:35.146Z,10.87
2018-09-13T10:34:09.012Z,12.67
2018-09-13T10:36:42.965Z,12.00
2018-09-13T10:39:16.707Z,12.47
2018-09-13T10:41:50.647Z,11.50
2018-09-13T10:44:24.497Z,10.50
2018-09-13T10:46:58.499Z,10.27
2018-09-13T10:49:32.425Z,12.10
2018-09-13T10:52:06.121Z,10.73
2018-09-13T10:54:39.637Z,10.67
2018-09-13T10:57:13.614Z,11.30
2018-09-13T10:59:42.560Z,10.13
2018-09-13T11:02:11.570Z,9.93
2018-09-13T11:04:40.506Z,11.20
2018-09-13T11:07:10.709Z,9.00
2018-09-13T11:09:39.561Z,9.60
2018-09-13T11:12:08.714Z,10.90
2018-09-13T11:14:42.652Z,11.60
2018-09-13T11:17:11.260Z,10.57
2018-09-13T11:19:39.821Z,11.07
2018-09-13T11:22:08.373Z,11.73
2018-09-13T11:24:37.087Z,10.63
2018-09-13T11:27:05.678Z,9.07
2018-09-13T11:29:34.385Z,10.23
2018-09-13T11:32:03.055Z,12.93
2018-09-13T11:34:31.718Z,8.40
2018-09-13T11:37:00.354Z,8.60
2018-09-13T11:39:28.979Z,10.77
2018-09-13T11:41:57.571Z,11.53
2018-09-13T11:44:26.348Z,10.40
2018-09-13T11:46:55.617Z,10.40
2018-09-13T11:49:25.065Z,7.73
2018-09-13T11:51:53.604Z,7.60
2018-09-13T11:54:22.947Z,10.07
2018-09-13T11:56:51.484Z,8.73
2018-09-13T11:59:20.049Z,10.40
2018-09-13T12:01:48.625Z,8.23
2018-09-13T12:04:17.874Z,10.10
2018-09-13T12:06:46.585Z,9.30
2018-09-13T12:09:15.865Z,9.37
2018-09-13T12:11:44.526Z,6.47
2018-09-13T12:14:13.180Z,9.50
2018-09-13T12:16:41.917Z,8.33
2018-09-13T12:19:10.757Z,8.57
2018-09-13T12:21:39.581Z,6.63
2018-09-13T12:24:09.141Z,7.90
2018-09-13T12:26:37.854Z,9.60
2018-09-13T12:29:06.683Z,8.90
2018-09-13T12:31:35.866Z,7.87
2018-09-13T12:34:04.890Z,9.13
2018-09-13T12:36:33.586Z,9.90
2018-09-13T12:39:02.453Z,9.37
2018-09-13T12:41:31.175Z,7.37
2018-09-13T12:44:00.774Z,8.17
2018-09-13T12:46:29.467Z,9.07
2018-09-13T12:48:58.242Z,8.87
2018-09-13T12:51:26.939Z,8.77
2018-09-13T12:53:55.493Z,8.67
2018-09-13T12:56:24.447Z,8.10
2018-09-13T12:58:53.708Z,8.40
2018-09-13T13:01:22.320Z,7.10
2018-09-13T13:03:51.301Z,11.07
2018-09-13T13:06:20.191Z,8.37
2018-09-13T13:08:49.116Z,9.20
2018-09-13T13:11:17.882Z,10.07
2018-09-13T13:13:46.711Z,8.60
2018-09-13T13:16:15.582Z,9.27
2018-09-13T13:18:44.809Z,5.70
2018-09-13T13:21:13.569Z,8.20
2018-09-13T13:23:42.129Z,7.63
2018-09-13T13:26:10.669Z,7.43
2018-09-13T13:28:39.354Z,11.63
2018-09-13T13:31:07.906Z,7.80
2018-09-13T13:33:36.461Z,7.97
2018-09-13T13:36:05.061Z,7.77
2018-09-13T13:38:33.594Z,8.17
2018-09-13T13:41:02.144Z,6.43
2018-09-13T13:43:30.684Z,7.23
2018-09-13T13:45:59.284Z,7.03
2018-09-13T13:48:28.053Z,8.50
2018-09-13T13:50:56.632Z,8.77
2018-09-13T13:53:25.131Z,11.23
2018-09-13T13:55:53.705Z,7.40
2018-09-13T13:58:25.133Z,9.67
2018-09-13T14:00:53.661Z,6.23
2018-09-13T14:03:22.305Z,6.60
2018-09-13T14:05:50.872Z,7.57
2018-09-13T14:08:19.361Z,9.93
2018-09-13T14:10:47.944Z,6.13
2018-09-13T14:13:16.510Z,7.80
2018-09-13T14:15:45.056Z,9.30
2018-09-13T14:18:13.637Z,10.53
2018-09-13T14:20:42.289Z,6.53
2018-09-13T14:23:11.349Z,6.30
2018-09-13T14:25:39.909Z,9.73
2018-09-13T14:28:08.522Z,11.10
2018-09-13T14:30:42.654Z,7.63
2018-09-13T14:33:11.657Z,9.40
2018-09-13T14:35:40.317Z,8.87
2018-09-13T14:38:08.804Z,8.27
2018-09-13T14:40:37.369Z,11.90
2018-09-13T14:43:06.593Z,10.03
2018-09-13T14:45:35.143Z,10.43
2018-09-13T14:48:03.745Z,10.00
2018-09-13T14:50:32.301Z,10.10
2018-09-13T14:53:00.881Z,9.93
2018-09-13T14:55:29.578Z,9.00
2018-09-13T14:57:58.589Z,10.97
2018-09-13T15:00:27.145Z,9.63
2018-09-13T15:02:55.758Z,9.50
2018-09-13T15:05:24.362Z,9.47
2018-09-13T15:07:52.945Z,10.33
2018-09-13T15:10:21.531Z,8.33
2018-09-13T15:12:50.327Z,11.47
2018-09-13T15:15:18.822Z,10.60
2018-09-13T15:17:47.389Z,11.17
2018-09-13T15:20:15.925Z,9.93
2018-09-13T15:22:44.503Z,15.90
2018-09-13T15:25:13.073Z,12.90
2018-09-13T15:27:41.643Z,13.63
2018-09-13T15:30:10.205Z,14.67
2018-09-13T15:32:38.782Z,16.30
2018-09-13T15:35:07.369Z,16.93
2018-09-13T15:37:35.946Z,16.13
2018-09-13T15:40:04.553Z,15.27
2018-09-13T15:42:33.126Z,16.73
2018-09-13T15:45:01.672Z,14.13
2018-09-13T15:47:30.257Z,19.93
2018-09-13T15:49:58.817Z,17.93
2018-09-13T15:52:27.482Z,11.23
2018-09-13T15:54:56.027Z,12.17
2018-09-13T15:57:24.589Z,12.10
2018-09-13T15:59:53.135Z,12.63
2018-09-13T16:02:21.771Z,16.83
2018-09-13T16:04:50.321Z,15.90
2018-09-13T16:07:18.945Z,15.10
2018-09-13T16:09:47.519Z,12.27
2018-09-13T16:12:16.122Z,12.47
2018-09-13T16:14:44.672Z,16.30
2018-09-13T16:17:13.248Z,16.37
2018-09-13T16:19:41.790Z,15.53
2018-09-13T16:22:10.337Z,15.37
2018-09-13T16:24:38.922Z,13.47
2018-09-13T16:27:07.494Z,12.17
2018-09-13T16:29:36.073Z,11.97
2018-09-13T16:32:04.619Z,12.60
2018-09-13T16:34:33.754Z,14.30
2018-09-13T16:37:08.212Z,14.57
2018-09-13T16:39:42.232Z,13.87
2018-09-13T16:42:23.043Z,14.17
2018-09-13T16:44:54.333Z,16.27
2018-09-13T16:47:31.123Z,14.97
2018-09-13T16:50:02.098Z,19.43
2018-09-13T16:52:31.581Z,16.50
2018-09-13T16:55:00.456Z,15.57
2018-09-13T16:57:29.102Z,17.50
2018-09-13T16:59:57.653Z,17.07
2018-09-13T17:02:26.221Z,14.83
2018-09-13T17:04:54.909Z,17.80
2018-09-13T17:07:23.532Z,15.60
2018-09-13T17:09:52.308Z,16.97
2018-09-13T17:12:20.850Z,16.40
2018-09-13T17:14:49.446Z,15.33
2018-09-13T17:17:17.961Z,14.00
2018-09-13T17:19:46.487Z,13.77
2018-09-13T17:22:15.084Z,15.30
2018-09-13T17:24:43.705Z,12.57
2018-09-13T17:27:12.260Z,15.43
2018-09-13T17:29:40.791Z,12.17
2018-09-13T17:32:09.294Z,17.10
2018-09-13T17:34:37.833Z,16.23
2018-09-13T17:37:07.013Z,14.60
2018-09-13T17:39:35.559Z,14.87
2018-09-13T17:42:04.077Z,18.83
2018-09-13T17:44:32.630Z,17.60
2018-09-13T17:47:01.161Z,14.50
2018-09-13T17:49:29.748Z,16.53
2018-09-13T17:51:58.541Z,16.73
2018-09-13T17:54:27.206Z,18.43
2018-09-13T17:56:55.864Z,17.10
2018-09-13T17:59:24.570Z,18.50
2018-09-13T18:01:53.124Z,17.97
2018-09-13T18:04:22.005Z,19.83
2018-09-13T18:06:50.542Z,18.87
2018-09-13T18:09:19.082Z,17.77
2018-09-13T18:11:47.646Z,17.73
2018-09-13T18:14:16.305Z,15.47
2018-09-13T18:16:44.962Z,17.07
2018-09-13T18:19:13.579Z,15.97
2018-09-13T18:21:42.694Z,16.40
2018-09-13T18:24:11.404Z,17.60
2018-09-13T18:26:39.953Z,17.33
2018-09-13T18:29:08.509Z,18.70
2018-09-13T18:31:37.062Z,17.67
2018-09-13T18:34:05.669Z,16.93
2018-09-13T18:36:34.230Z,17.07
2018-09-13T18:39:02.838Z,16.67
2018-09-13T18:41:31.418Z,17.90
2018-09-13T18:43:59.994Z,19.57
2018-09-13T18:46:28.590Z,17.00
2018-09-13T18:48:57.145Z,21.40
2018-09-13T18:51:25.736Z,18.37
2018-09-13T18:53:54.466Z,19.83
2018-09-13T18:56:23.011Z,18.07
2018-09-13T18:58:51.610Z,21.37
2018-09-13T19:01:20.210Z,20.03
2018-09-13T19:03:48.758Z,21.57
2018-09-13T19:06:17.329Z,20.50
2018-09-13T19:08:45.889Z,21.23
2018-09-13T19:11:14.504Z,20.07
2018-09-13T19:13:42.984Z,21.57
2018-09-13T19:16:11.558Z,23.20
2018-09-13T19:18:40.101Z,22.13
2018-09-13T19:21:08.648Z,21.47
2018-09-13T19:23:37.179Z,22.40
2018-09-13T19:26:05.801Z,18.57
2018-09-13T19:28:34.339Z,17.53
2018-09-13T19:31:02.965Z,17.27
2018-09-13T19:33:31.462Z,18.60
2018-09-13T19:36:00.081Z,19.10
2018-09-13T19:38:28.647Z,22.07
2018-09-13T19:40:57.247Z,17.93
2018-09-13T19:43:25.822Z,20.50
2018-09-13T19:45:54.376Z,19.10
2018-09-13T19:48:22.870Z,20.53
2018-09-13T19:50:51.515Z,18.23
2018-09-13T19:53:20.010Z,20.00
2018-09-13T19:55:48.574Z,20.90
2018-09-13T19:58:17.085Z,19.70
2018-09-13T20:00:45.625Z,19.67
2018-09-13T20:03:14.140Z,22.23
2018-09-13T20:05:42.697Z,22.13
2018-09-13T20:08:11.188Z,18.63
2018-09-13T20:10:39.747Z,18.80
2018-09-13T20:13:08.277Z,20.27
2018-09-13T20:15:36.816Z,20.27
2018-09-13T20:18:05.586Z,19.80
2018-09-13T20:20:34.186Z,20.80
2018-09-13T20:23:02.787Z,22.57
2018-09-13T20:25:31.276Z,22.20
2018-09-13T20:27:59.840Z,21.53
2018-09-13T20:30:28.376Z,21.40
2018-09-13T20:32:56.893Z,20.03
2018-09-13T20:35:25.479Z,22.80
2018-09-13T20:37:53.962Z,20.20
2018-09-13T20:40:22.480Z,20.77
2018-09-13T20:42:51.041Z,22.67
2018-09-13T20:45:19.554Z,24.43
2018-09-13T20:47:48.091Z,21.80
2018-09-13T20:50:16.600Z,24.83
2018-09-13T20:52:45.174Z,55.93
2018-09-13T20:55:13.749Z,29.00
2018-09-13T20:57:42.287Z,30.97
2018-09-13T21:00:14.249Z,29.00
2018-09-13T21:02:42.763Z,30.13
2018-09-13T21:05:11.262Z,32.10
2018-09-13T21:07:39.805Z,32.47
2018-09-13T21:10:08.798Z,29.73
2018-09-13T21:12:37.651Z,27.97
2018-09-13T21:15:06.941Z,41.97
2018-09-13T21:17:35.845Z,35.33
2018-09-13T21:20:04.662Z,28.87
2018-09-13T21:22:33.657Z,29.53
2018-09-13T21:25:02.184Z,32.97
2018-09-13T21:27:30.741Z,33.83
2018-09-13T21:29:59.278Z,29.13
2018-09-13T21:32:28.181Z,33.60
2018-09-13T21:34:56.733Z,35.30
2018-09-13T21:37:25.285Z,34.43
2018-09-13T21:39:53.822Z,35.17
2018-09-13T21:42:22.375Z,38.67
2018-09-13T21:44:50.905Z,39.03
2018-09-13T21:47:19.473Z,39.37
2018-09-13T21:49:48.017Z,38.93
2018-09-13T21:52:16.585Z,35.83
2018-09-13T21:54:45.117Z,38.77
2018-09-13T21:57:13.682Z,35.53
2018-09-13T21:59:42.242Z,39.27
2018-09-13T22:02:11.318Z,41.03
2018-09-13T22:04:39.909Z,40.13
2018-09-13T22:07:08.576Z,44.50
2018-09-13T22:09:37.112Z,38.63
2018-09-13T22:12:05.673Z,42.97
2018-09-13T22:14:34.181Z,46.40
2018-09-13T22:17:02.732Z,43.13
2018-09-13T22:19:31.237Z,40.67
2018-09-13T22:21:59.759Z,41.23
2018-09-13T22:24:28.255Z,41.73
2018-09-13T22:26:56.778Z,41.23
2018-09-13T22:29:25.309Z,42.93
2018-09-13T22:31:53.833Z,44.73
2018-09-13T22:34:22.393Z,40.33
2018-09-13T22:36:51.611Z,41.27
2018-09-13T22:39:20.118Z,43.03
2018-09-13T22:41:48.646Z,46.20
2018-09-13T22:44:17.132Z,44.00
2018-09-13T22:46:45.667Z,43.97
2018-09-13T22:49:14.281Z,42.23
2018-09-13T22:51:42.902Z,42.97
2018-09-13T22:54:11.400Z,44.17
2018-09-13T22:56:39.949Z,50.27
2018-09-13T22:59:08.453Z,47.00
2018-09-13T23:01:36.992Z,49.67
2018-09-13T23:04:05.546Z,44.67
2018-09-13T23:06:34.085Z,41.53
2018-09-13T23:09:02.656Z,43.80
2018-09-13T23:11:31.237Z,41.60
2018-09-13T23:13:59.784Z,43.70
2018-09-13T23:16:28.336Z,42.73
2018-09-13T23:18:56.922Z,37.80
2018-09-13T23:21:25.518Z,48.23
2018-09-13T23:23:54.097Z,52.30
2018-09-13T23:26:22.628Z,49.40
2018-09-13T23:28:51.253Z,52.77
2018-09-13T23:31:19.813Z,49.63
2018-09-13T23:33:48.385Z,53.23
2018-09-13T23:36:16.917Z,52.60
2018-09-13T23:38:45.525Z,54.17
2018-09-13T23:41:14.081Z,53.23
2018-09-13T23:43:42.631Z,51.37
2018-09-13T23:46:11.242Z,48.97
2018-09-13T23:48:39.745Z,51.63
2018-09-13T23:51:08.567Z,49.40
2018-09-13T23:53:37.193Z,47.70
2018-09-13T23:56:05.771Z,43.43
2018-09-13T23:58:34.325Z,43.80
